sensor_id;sensor_type;location;lat;lon;timestamp;temperature;humidity
68842;SHT35;55849;48.482;2.332;2024-01-25T05:42:38;13.46;80.36
68842;SHT35;55849;48.482;2.332;2024-01-25T05:45:40;13.44;80.81
68842;SHT35;55849;48.482;2.332;2024-01-25T05:48:42;13.44;81.06
68842;SHT35;55849;48.482;2.332;2024-01-25T05:51:43;13.43;80.89
68842;SHT35;55849;48.482;2.332;2024-01-25T05:54:45;13.44;81.13
68842;SHT35;55849;48.482;2.332;2024-01-25T05:57:48;13.40;81.22
68842;SHT35;55849;48.482;2.332;2024-01-25T06:00:50;13.44;81.19
68842;SHT35;55849;48.482;2.332;2024-01-25T06:03:52;13.42;81.32
68842;SHT35;55849;48.482;2.332;2024-01-25T06:06:53;13.46;81.37
68842;SHT35;55849;48.482;2.332;2024-01-25T06:09:55;13.46;81.41
68842;SHT35;55849;48.482;2.332;2024-01-25T06:12:58;13.47;81.46
68842;SHT35;55849;48.482;2.332;2024-01-25T06:15:59;13.50;81.39
68842;SHT35;55849;48.482;2.332;2024-01-25T06:19:02;13.50;81.37
68842;SHT35;55849;48.482;2.332;2024-01-25T06:22:03;13.50;81.43
68842;SHT35;55849;48.482;2.332;2024-01-25T06:25:05;13.53;81.39
68842;SHT35;55849;48.482;2.332;2024-01-25T06:28:09;13.51;81.39
68842;SHT35;55849;48.482;2.332;2024-01-25T06:31:10;13.53;81.35
68842;SHT35;55849;48.482;2.332;2024-01-25T06:34:12;13.53;81.27
68842;SHT35;55849;48.482;2.332;2024-01-25T06:37:14;13.54;81.28
68842;SHT35;55849;48.482;2.332;2024-01-25T06:40:18;13.53;81.24
68842;SHT35;55849;48.482;2.332;2024-01-25T06:43:21;13.54;81.16
68842;SHT35;55849;48.482;2.332;2024-01-25T06:46:23;13.53;81.14
68842;SHT35;55849;48.482;2.332;2024-01-25T06:49:24;13.51;81.07
68842;SHT35;55849;48.482;2.332;2024-01-25T06:52:26;13.50;81.12
68842;SHT35;55849;48.482;2.332;2024-01-25T06:55:28;13.50;81.07
68842;SHT35;55849;48.482;2.332;2024-01-25T06:58:31;13.48;81.15
68842;SHT35;55849;48.482;2.332;2024-01-25T07:01:33;13.47;81.26
68842;SHT35;55849;48.482;2.332;2024-01-25T07:04:34;13.48;81.20
68842;SHT35;55849;48.482;2.332;2024-01-25T07:07:38;13.47;81.14
68842;SHT35;55849;48.482;2.332;2024-01-25T07:10:40;13.47;81.13
68842;SHT35;55849;48.482;2.332;2024-01-25T07:13:43;13.43;81.04
68842;SHT35;55849;48.482;2.332;2024-01-25T07:16:45;13.44;81.07
68842;SHT35;55849;48.482;2.332;2024-01-25T07:19:46;13.44;81.13
68842;SHT35;55849;48.482;2.332;2024-01-25T07:22:48;13.44;81.28
68842;SHT35;55849;48.482;2.332;2024-01-25T07:25:49;13.44;81.17
68842;SHT35;55849;48.482;2.332;2024-01-25T07:28:52;13.42;81.24
68842;SHT35;55849;48.482;2.332;2024-01-25T07:31:58;13.44;81.28
68842;SHT35;55849;48.482;2.332;2024-01-25T07:34:59;13.44;81.22
68842;SHT35;55849;48.482;2.332;2024-01-25T07:38:01;13.43;81.16
68842;SHT35;55849;48.482;2.332;2024-01-25T07:41:03;13.44;81.21
68842;SHT35;55849;48.482;2.332;2024-01-25T07:44:06;13.44;81.17
68842;SHT35;55849;48.482;2.332;2024-01-25T07:47:08;13.43;81.18
68842;SHT35;55849;48.482;2.332;2024-01-25T07:50:10;13.42;81.23
68842;SHT35;55849;48.482;2.332;2024-01-25T07:53:12;13.43;81.22
68842;SHT35;55849;48.482;2.332;2024-01-25T07:56:14;13.42;81.21
68842;SHT35;55849;48.482;2.332;2024-01-25T07:59:17;13.44;81.20
68842;SHT35;55849;48.482;2.332;2024-01-25T08:02:19;13.42;81.23
68842;SHT35;55849;48.482;2.332;2024-01-25T08:05:21;13.42;81.34
68842;SHT35;55849;48.482;2.332;2024-01-25T08:08:22;13.44;81.40
68842;SHT35;55849;48.482;2.332;2024-01-25T08:11:24;13.44;81.42
68842;SHT35;55849;48.482;2.332;2024-01-25T08:14:27;13.44;81.47
68842;SHT35;55849;48.482;2.332;2024-01-25T08:17:29;13.44;81.45
68842;SHT35;55849;48.482;2.332;2024-01-25T08:20:31;13.43;81.50
68842;SHT35;55849;48.482;2.332;2024-01-25T08:23:32;13.50;81.51
68842;SHT35;55849;48.482;2.332;2024-01-25T08:26:34;13.48;81.45
68842;SHT35;55849;48.482;2.332;2024-01-25T08:29:37;13.53;81.48
68842;SHT35;55849;48.482;2.332;2024-01-25T08:32:40;13.53;81.40
68842;SHT35;55849;48.482;2.332;2024-01-25T08:35:41;13.53;81.41
68842;SHT35;55849;48.482;2.332;2024-01-25T08:38:43;13.57;81.41
68842;SHT35;55849;48.482;2.332;2024-01-25T08:41:45;13.58;81.37
68842;SHT35;55849;48.482;2.332;2024-01-25T08:44:50;13.60;81.33
68842;SHT35;55849;48.482;2.332;2024-01-25T08:47:52;13.60;81.34
68842;SHT35;55849;48.482;2.332;2024-01-25T08:50:53;13.61;81.31
68842;SHT35;55849;48.482;2.332;2024-01-25T08:53:55;13.62;81.32
68842;SHT35;55849;48.482;2.332;2024-01-25T08:56:57;13.65;81.36
68842;SHT35;55849;48.482;2.332;2024-01-25T09:00:00;13.67;81.30
68842;SHT35;55849;48.482;2.332;2024-01-25T09:03:02;13.70;81.29
68842;SHT35;55849;48.482;2.332;2024-01-25T09:06:04;13.71;81.27
68842;SHT35;55849;48.482;2.332;2024-01-25T09:09:06;13.70;81.28
68842;SHT35;55849;48.482;2.332;2024-01-25T09:12:11;13.71;81.27
68842;SHT35;55849;48.482;2.332;2024-01-25T09:15:14;13.74;81.36
68842;SHT35;55849;48.482;2.332;2024-01-25T09:18:16;13.77;81.35
68842;SHT35;55849;48.482;2.332;2024-01-25T09:21:17;13.77;81.27
68842;SHT35;55849;48.482;2.332;2024-01-25T09:24:19;13.79;81.35
68842;SHT35;55849;48.482;2.332;2024-01-25T09:27:21;13.85;81.43
68842;SHT35;55849;48.482;2.332;2024-01-25T09:30:24;13.83;81.42
68842;SHT35;55849;48.482;2.332;2024-01-25T09:33:26;13.85;81.38
68842;SHT35;55849;48.482;2.332;2024-01-25T09:36:30;13.88;81.41
68842;SHT35;55849;48.482;2.332;2024-01-25T09:39:31;13.89;81.36
68842;SHT35;55849;48.482;2.332;2024-01-25T09:42:33;13.89;81.50
68842;SHT35;55849;48.482;2.332;2024-01-25T09:45:37;13.92;81.40
68842;SHT35;55849;48.482;2.332;2024-01-25T09:48:41;13.96;81.27
68842;SHT35;55849;48.482;2.332;2024-01-25T09:51:44;13.98;81.42
68842;SHT35;55849;48.482;2.332;2024-01-25T09:54:46;13.99;81.33
68842;SHT35;55849;48.482;2.332;2024-01-25T09:57:49;14.01;81.43
68842;SHT35;55849;48.482;2.332;2024-01-25T10:00:55;13.99;81.26
68842;SHT35;55849;48.482;2.332;2024-01-25T10:03:57;14.03;81.42
68842;SHT35;55849;48.482;2.332;2024-01-25T10:06:58;14.06;81.44
68842;SHT35;55849;48.482;2.332;2024-01-25T10:10:00;14.09;81.47
68842;SHT35;55849;48.482;2.332;2024-01-25T10:13:01;14.09;81.31
68842;SHT35;55849;48.482;2.332;2024-01-25T10:16:05;14.12;81.20
68842;SHT35;55849;48.482;2.332;2024-01-25T10:19:07;14.14;81.18
68842;SHT35;55849;48.482;2.332;2024-01-25T10:22:09;14.17;81.26
68842;SHT35;55849;48.482;2.332;2024-01-25T10:25:12;14.20;81.18
68842;SHT35;55849;48.482;2.332;2024-01-25T10:28:15;14.26;81.07
68842;SHT35;55849;48.482;2.332;2024-01-25T10:31:19;14.26;80.95
68842;SHT35;55849;48.482;2.332;2024-01-25T10:34:22;14.29;80.97
68842;SHT35;55849;48.482;2.332;2024-01-25T10:37:27;14.30;80.98
68842;SHT35;55849;48.482;2.332;2024-01-25T10:40:29;14.31;80.88
68842;SHT35;55849;48.482;2.332;2024-01-25T10:43:32;14.31;80.93
68842;SHT35;55849;48.482;2.332;2024-01-25T10:46:36;14.34;80.75
68842;SHT35;55849;48.482;2.332;2024-01-25T10:49:38;14.34;80.58
68842;SHT35;55849;48.482;2.332;2024-01-25T10:52:41;14.36;80.43
68842;SHT35;55849;48.482;2.332;2024-01-25T10:55:43;14.38;80.40
68842;SHT35;55849;48.482;2.332;2024-01-25T10:58:45;14.37;80.43
68842;SHT35;55849;48.482;2.332;2024-01-25T11:01:48;14.40;80.47
68842;SHT35;55849;48.482;2.332;2024-01-25T11:04:53;14.40;80.41
68842;SHT35;55849;48.482;2.332;2024-01-25T11:07:55;14.41;80.24
68842;SHT35;55849;48.482;2.332;2024-01-25T11:10:57;14.41;80.29
68842;SHT35;55849;48.482;2.332;2024-01-25T11:13:59;14.42;80.27
68842;SHT35;55849;48.482;2.332;2024-01-25T11:17:14;14.41;80.19
68842;SHT35;55849;48.482;2.332;2024-01-25T11:20:20;14.42;80.28
68842;SHT35;55849;48.482;2.332;2024-01-25T11:23:21;14.42;80.33
68842;SHT35;55849;48.482;2.332;2024-01-25T11:26:24;14.47;80.56
68842;SHT35;55849;48.482;2.332;2024-01-25T11:29:26;14.51;80.71
68842;SHT35;55849;48.482;2.332;2024-01-25T11:32:29;14.55;80.89
68842;SHT35;55849;48.482;2.332;2024-01-25T11:35:32;14.60;80.74
68842;SHT35;55849;48.482;2.332;2024-01-25T11:38:36;14.64;80.33
68842;SHT35;55849;48.482;2.332;2024-01-25T11:41:38;14.71;80.18
68842;SHT35;55849;48.482;2.332;2024-01-25T11:44:39;14.76;80.07
68842;SHT35;55849;48.482;2.332;2024-01-25T11:47:43;14.79;80.08
68842;SHT35;55849;48.482;2.332;2024-01-25T11:50:45;14.83;80.07
68842;SHT35;55849;48.482;2.332;2024-01-25T11:53:47;14.89;79.80
68842;SHT35;55849;48.482;2.332;2024-01-25T11:56:49;14.90;79.85
68842;SHT35;55849;48.482;2.332;2024-01-25T11:59:50;14.95;79.60
68842;SHT35;55849;48.482;2.332;2024-01-25T12:02:54;14.96;79.54
68842;SHT35;55849;48.482;2.332;2024-01-25T12:05:55;14.99;79.56
68842;SHT35;55849;48.482;2.332;2024-01-25T12:09:06;15.02;79.37
68842;SHT35;55849;48.482;2.332;2024-01-25T12:12:09;15.03;79.08
68842;SHT35;55849;48.482;2.332;2024-01-25T12:15:11;15.06;79.11
68842;SHT35;55849;48.482;2.332;2024-01-25T12:18:14;15.09;79.01
68842;SHT35;55849;48.482;2.332;2024-01-25T12:21:16;15.11;79.08
68842;SHT35;55849;48.482;2.332;2024-01-25T12:24:19;15.11;79.04
68842;SHT35;55849;48.482;2.332;2024-01-25T12:27:21;15.13;79.17
68842;SHT35;55849;48.482;2.332;2024-01-25T12:30:23;15.13;78.85
68842;SHT35;55849;48.482;2.332;2024-01-25T12:33:26;15.13;78.62
68842;SHT35;55849;48.482;2.332;2024-01-25T12:36:27;15.14;78.17
68842;SHT35;55849;48.482;2.332;2024-01-25T12:39:29;15.11;78.14
68842;SHT35;55849;48.482;2.332;2024-01-25T12:42:31;15.13;78.39
68842;SHT35;55849;48.482;2.332;2024-01-25T12:45:32;15.16;78.33
68842;SHT35;55849;48.482;2.332;2024-01-25T12:48:35;15.13;78.36
68842;SHT35;55849;48.482;2.332;2024-01-25T12:51:37;15.13;78.12
68842;SHT35;55849;48.482;2.332;2024-01-25T12:54:39;15.11;78.26
68842;SHT35;55849;48.482;2.332;2024-01-25T12:57:40;15.11;77.99
68842;SHT35;55849;48.482;2.332;2024-01-25T13:00:42;15.11;78.09
68842;SHT35;55849;48.482;2.332;2024-01-25T13:03:47;15.11;78.18
68842;SHT35;55849;48.482;2.332;2024-01-25T13:06:48;15.13;78.38
68842;SHT35;55849;48.482;2.332;2024-01-25T13:09:50;15.13;78.16
68842;SHT35;55849;48.482;2.332;2024-01-25T13:12:51;15.11;78.15
68842;SHT35;55849;48.482;2.332;2024-01-25T13:15:53;15.11;78.12
68842;SHT35;55849;48.482;2.332;2024-01-25T13:18:56;15.14;77.96
68842;SHT35;55849;48.482;2.332;2024-01-25T13:21:57;15.14;78.09
68842;SHT35;55849;48.482;2.332;2024-01-25T13:24:59;15.14;77.78
68842;SHT35;55849;48.482;2.332;2024-01-25T13:28:01;15.13;77.81
68842;SHT35;55849;48.482;2.332;2024-01-25T13:31:03;15.13;77.86
68842;SHT35;55849;48.482;2.332;2024-01-25T13:34:06;15.13;77.73
68842;SHT35;55849;48.482;2.332;2024-01-25T13:37:07;15.16;77.94
68842;SHT35;55849;48.482;2.332;2024-01-25T13:40:09;15.16;77.99
68842;SHT35;55849;48.482;2.332;2024-01-25T13:43:11;15.14;77.98
68842;SHT35;55849;48.482;2.332;2024-01-25T13:46:13;15.11;77.70
68842;SHT35;55849;48.482;2.332;2024-01-25T13:49:16;15.17;77.72
68842;SHT35;55849;48.482;2.332;2024-01-25T13:52:18;15.20;77.49
68842;SHT35;55849;48.482;2.332;2024-01-25T13:55:20;15.19;77.31
68842;SHT35;55849;48.482;2.332;2024-01-25T13:58:22;15.22;77.58
68842;SHT35;55849;48.482;2.332;2024-01-25T14:01:23;15.22;77.55
68842;SHT35;55849;48.482;2.332;2024-01-25T14:04:26;15.20;77.40
68842;SHT35;55849;48.482;2.332;2024-01-25T14:07:28;15.20;77.47
68842;SHT35;55849;48.482;2.332;2024-01-25T14:10:29;15.13;77.25
68842;SHT35;55849;48.482;2.332;2024-01-25T14:13:32;15.16;77.32
68842;SHT35;55849;48.482;2.332;2024-01-25T14:16:34;15.13;77.45
68842;SHT35;55849;48.482;2.332;2024-01-25T14:19:37;15.16;77.44
68842;SHT35;55849;48.482;2.332;2024-01-25T14:22:39;15.14;77.52
68842;SHT35;55849;48.482;2.332;2024-01-25T14:25:40;15.13;77.43
68842;SHT35;55849;48.482;2.332;2024-01-25T14:28:42;15.16;77.65
68842;SHT35;55849;48.482;2.332;2024-01-25T14:31:44;15.13;77.43
68842;SHT35;55849;48.482;2.332;2024-01-25T14:34:47;15.10;77.80
68842;SHT35;55849;48.482;2.332;2024-01-25T14:37:48;15.13;77.77
68842;SHT35;55849;48.482;2.332;2024-01-25T14:40:50;15.11;77.69
68842;SHT35;55849;48.482;2.332;2024-01-25T14:43:51;15.11;77.65
68842;SHT35;55849;48.482;2.332;2024-01-25T14:46:53;15.10;77.63
68842;SHT35;55849;48.482;2.332;2024-01-25T14:49:56;15.04;77.81
68842;SHT35;55849;48.482;2.332;2024-01-25T14:52:58;15.09;77.64
68842;SHT35;55849;48.482;2.332;2024-01-25T14:55:59;15.06;77.84
68842;SHT35;55849;48.482;2.332;2024-01-25T14:59:01;15.06;77.78
68842;SHT35;55849;48.482;2.332;2024-01-25T15:02:03;15.04;77.86
68842;SHT35;55849;48.482;2.332;2024-01-25T15:05:07;15.03;78.07
68842;SHT35;55849;48.482;2.332;2024-01-25T15:08:08;15.04;77.61
68842;SHT35;55849;48.482;2.332;2024-01-25T15:11:10;15.02;77.52
68842;SHT35;55849;48.482;2.332;2024-01-25T15:14:13;15.04;77.45
68842;SHT35;55849;48.482;2.332;2024-01-25T15:17:14;15.00;77.33
68842;SHT35;55849;48.482;2.332;2024-01-25T15:20:17;14.99;77.63
68842;SHT35;55849;48.482;2.332;2024-01-25T15:23:19;14.98;77.13
68842;SHT35;55849;48.482;2.332;2024-01-25T15:26:21;14.98;77.27
68842;SHT35;55849;48.482;2.332;2024-01-25T15:29:22;14.98;77.35
68842;SHT35;55849;48.482;2.332;2024-01-25T15:32:24;14.95;76.80
68842;SHT35;55849;48.482;2.332;2024-01-25T15:35:27;14.95;77.68
68842;SHT35;55849;48.482;2.332;2024-01-25T15:38:28;14.98;77.92
68842;SHT35;55849;48.482;2.332;2024-01-25T15:41:30;14.93;77.59
68842;SHT35;55849;48.482;2.332;2024-01-25T15:44:31;14.90;77.24
68842;SHT35;55849;48.482;2.332;2024-01-25T15:47:33;14.90;77.94
68842;SHT35;55849;48.482;2.332;2024-01-25T15:50:36;14.92;77.25
68842;SHT35;55849;48.482;2.332;2024-01-25T15:53:39;14.90;77.40
68842;SHT35;55849;48.482;2.332;2024-01-25T15:56:41;14.89;77.48
68842;SHT35;55849;48.482;2.332;2024-01-25T15:59:43;14.86;77.47
68842;SHT35;55849;48.482;2.332;2024-01-25T16:02:47;14.83;77.55
68842;SHT35;55849;48.482;2.332;2024-01-25T16:05:50;14.82;77.41
68842;SHT35;55849;48.482;2.332;2024-01-25T16:08:54;14.82;77.79
68842;SHT35;55849;48.482;2.332;2024-01-25T16:11:59;14.81;77.85
68842;SHT35;55849;48.482;2.332;2024-01-25T16:15:02;14.78;77.58
68842;SHT35;55849;48.482;2.332;2024-01-25T16:18:04;14.76;77.63
68842;SHT35;55849;48.482;2.332;2024-01-25T16:21:07;14.79;77.75
68842;SHT35;55849;48.482;2.332;2024-01-25T16:24:09;14.76;77.67
68842;SHT35;55849;48.482;2.332;2024-01-25T16:27:10;14.76;77.65
68842;SHT35;55849;48.482;2.332;2024-01-25T16:30:13;14.72;77.71
68842;SHT35;55849;48.482;2.332;2024-01-25T16:33:14;14.72;77.68
68842;SHT35;55849;48.482;2.332;2024-01-25T16:36:17;14.69;77.67
68842;SHT35;55849;48.482;2.332;2024-01-25T16:39:19;14.68;77.77
68842;SHT35;55849;48.482;2.332;2024-01-25T16:42:20;14.67;77.36
68842;SHT35;55849;48.482;2.332;2024-01-25T16:45:22;14.61;77.51
68842;SHT35;55849;48.482;2.332;2024-01-25T16:48:24;14.63;78.00
68842;SHT35;55849;48.482;2.332;2024-01-25T16:51:28;14.60;78.05
68842;SHT35;55849;48.482;2.332;2024-01-25T16:54:29;14.58;77.97
68842;SHT35;55849;48.482;2.332;2024-01-25T16:57:31;14.57;78.10
68842;SHT35;55849;48.482;2.332;2024-01-25T17:00:33;14.54;78.50
68842;SHT35;55849;48.482;2.332;2024-01-25T17:03:34;14.54;78.01
68842;SHT35;55849;48.482;2.332;2024-01-25T17:06:37;14.51;78.09
68842;SHT35;55849;48.482;2.332;2024-01-25T17:09:41;14.49;78.75
68842;SHT35;55849;48.482;2.332;2024-01-25T17:12:43;14.48;78.04
68842;SHT35;55849;48.482;2.332;2024-01-25T17:15:44;14.49;78.75
68842;SHT35;55849;48.482;2.332;2024-01-25T17:18:46;14.47;78.78
68842;SHT35;55849;48.482;2.332;2024-01-25T17:21:49;14.47;78.97
68842;SHT35;55849;48.482;2.332;2024-01-25T17:24:51;14.44;79.09
68842;SHT35;55849;48.482;2.332;2024-01-25T17:27:53;14.44;79.14
68842;SHT35;55849;48.482;2.332;2024-01-25T17:30:54;14.42;79.21
68842;SHT35;55849;48.482;2.332;2024-01-25T17:33:56;14.40;79.15
68842;SHT35;55849;48.482;2.332;2024-01-25T17:37:00;14.38;79.28
68842;SHT35;55849;48.482;2.332;2024-01-25T17:40:02;14.37;79.29
68842;SHT35;55849;48.482;2.332;2024-01-25T17:43:04;14.36;79.42
68842;SHT35;55849;48.482;2.332;2024-01-25T17:46:05;14.37;79.41
68842;SHT35;55849;48.482;2.332;2024-01-25T17:49:07;14.34;79.22
68842;SHT35;55849;48.482;2.332;2024-01-25T17:52:10;14.34;79.54
68842;SHT35;55849;48.482;2.332;2024-01-25T17:55:11;14.31;79.58
68842;SHT35;55849;48.482;2.332;2024-01-25T17:58:13;14.30;79.49
68842;SHT35;55849;48.482;2.332;2024-01-25T18:01:14;14.31;79.57
68842;SHT35;55849;48.482;2.332;2024-01-25T18:04:16;14.30;79.60
68842;SHT35;55849;48.482;2.332;2024-01-25T18:07:19;14.27;79.65
68842;SHT35;55849;48.482;2.332;2024-01-25T18:10:21;14.24;79.58
68842;SHT35;55849;48.482;2.332;2024-01-25T18:13:23;14.24;79.49
68842;SHT35;55849;48.482;2.332;2024-01-25T18:16:24;14.24;79.69
68842;SHT35;55849;48.482;2.332;2024-01-25T18:19:26;14.24;79.70
68842;SHT35;55849;48.482;2.332;2024-01-25T18:22:31;14.24;79.64
68842;SHT35;55849;48.482;2.332;2024-01-25T18:25:32;14.24;79.71
68842;SHT35;55849;48.482;2.332;2024-01-25T18:28:34;14.23;79.77
68842;SHT35;55849;48.482;2.332;2024-01-25T18:31:35;14.23;79.72
68842;SHT35;55849;48.482;2.332;2024-01-25T18:34:37;14.20;79.79
68842;SHT35;55849;48.482;2.332;2024-01-25T18:37:40;14.20;79.36
68842;SHT35;55849;48.482;2.332;2024-01-25T18:40:41;14.17;79.30
68842;SHT35;55849;48.482;2.332;2024-01-25T18:43:43;14.17;79.36
68842;SHT35;55849;48.482;2.332;2024-01-25T18:46:45;14.14;79.17
68842;SHT35;55849;48.482;2.332;2024-01-25T18:49:46;14.14;79.58
68842;SHT35;55849;48.482;2.332;2024-01-25T18:52:50;14.13;79.73
68842;SHT35;55849;48.482;2.332;2024-01-25T18:55:51;14.14;79.63
68842;SHT35;55849;48.482;2.332;2024-01-25T18:58:54;14.14;79.51
68842;SHT35;55849;48.482;2.332;2024-01-25T19:01:57;14.14;79.63
68842;SHT35;55849;48.482;2.332;2024-01-25T19:04:59;14.12;79.28
68842;SHT35;55849;48.482;2.332;2024-01-25T19:08:02;14.12;79.70
68842;SHT35;55849;48.482;2.332;2024-01-25T19:11:04;14.12;79.85
68842;SHT35;55849;48.482;2.332;2024-01-25T19:14:06;14.12;79.80
68842;SHT35;55849;48.482;2.332;2024-01-25T19:17:07;14.13;79.56
68842;SHT35;55849;48.482;2.332;2024-01-25T19:20:10;14.09;79.82
68842;SHT35;55849;48.482;2.332;2024-01-25T19:23:13;14.13;79.64
68842;SHT35;55849;48.482;2.332;2024-01-25T19:26:14;14.13;79.88
68842;SHT35;55849;48.482;2.332;2024-01-25T19:29:16;14.12;79.71
68842;SHT35;55849;48.482;2.332;2024-01-25T19:32:18;14.12;79.48
68842;SHT35;55849;48.482;2.332;2024-01-25T19:35:20;14.09;79.53
68842;SHT35;55849;48.482;2.332;2024-01-25T19:38:26;14.12;79.46
68842;SHT35;55849;48.482;2.332;2024-01-25T19:41:27;14.06;79.48
68842;SHT35;55849;48.482;2.332;2024-01-25T19:44:29;14.08;79.68
68842;SHT35;55849;48.482;2.332;2024-01-25T19:47:30;14.05;79.73
68842;SHT35;55849;48.482;2.332;2024-01-25T19:50:32;14.05;79.76
68842;SHT35;55849;48.482;2.332;2024-01-25T19:53:35;14.02;79.54
68842;SHT35;55849;48.482;2.332;2024-01-25T19:56:37;13.98;79.66
68842;SHT35;55849;48.482;2.332;2024-01-25T19:59:39;13.99;79.61
68842;SHT35;55849;48.482;2.332;2024-01-25T20:02:42;13.96;79.85
68842;SHT35;55849;48.482;2.332;2024-01-25T20:05:44;13.99;79.82
68842;SHT35;55849;48.482;2.332;2024-01-25T20:08:48;13.96;79.91
68842;SHT35;55849;48.482;2.332;2024-01-25T20:11:50;13.98;79.99
68842;SHT35;55849;48.482;2.332;2024-01-25T20:14:52;13.99;80.09
68842;SHT35;55849;48.482;2.332;2024-01-25T20:17:53;13.96;80.04
68842;SHT35;55849;48.482;2.332;2024-01-25T20:20:55;13.96;80.15
68842;SHT35;55849;48.482;2.332;2024-01-25T20:23:58;13.96;80.23
68842;SHT35;55849;48.482;2.332;2024-01-25T20:27:01;13.95;80.33
68842;SHT35;55849;48.482;2.332;2024-01-25T20:30:03;13.98;80.34
68842;SHT35;55849;48.482;2.332;2024-01-25T20:33:05;13.99;80.26
68842;SHT35;55849;48.482;2.332;2024-01-25T20:36:07;13.98;80.37
68842;SHT35;55849;48.482;2.332;2024-01-25T20:39:10;14.01;80.24
68842;SHT35;55849;48.482;2.332;2024-01-25T20:42:11;13.99;80.44
68842;SHT35;55849;48.482;2.332;2024-01-25T20:45:13;13.98;80.33
68842;SHT35;55849;48.482;2.332;2024-01-25T20:48:17;13.99;80.34
68842;SHT35;55849;48.482;2.332;2024-01-25T20:51:18;13.98;80.28
68842;SHT35;55849;48.482;2.332;2024-01-25T20:54:22;13.98;80.36
68842;SHT35;55849;48.482;2.332;2024-01-25T20:57:23;13.99;80.36
68842;SHT35;55849;48.482;2.332;2024-01-25T21:00:25;13.98;80.32
68842;SHT35;55849;48.482;2.332;2024-01-25T21:03:27;13.98;80.31
68842;SHT35;55849;48.482;2.332;2024-01-25T21:06:29;13.96;80.13
68842;SHT35;55849;48.482;2.332;2024-01-25T21:09:33;13.95;80.12
68842;SHT35;55849;48.482;2.332;2024-01-25T21:12:35;13.92;80.10
68842;SHT35;55849;48.482;2.332;2024-01-25T21:15:37;13.90;80.06
68842;SHT35;55849;48.482;2.332;2024-01-25T21:18:39;13.89;80.15
68842;SHT35;55849;48.482;2.332;2024-01-25T21:21:40;13.85;80.33
68842;SHT35;55849;48.482;2.332;2024-01-25T21:24:43;13.82;80.14
68842;SHT35;55849;48.482;2.332;2024-01-25T21:27:45;13.79;80.03
68842;SHT35;55849;48.482;2.332;2024-01-25T21:30:46;13.79;80.07
68842;SHT35;55849;48.482;2.332;2024-01-25T21:33:48;13.75;80.23
68842;SHT35;55849;48.482;2.332;2024-01-25T21:36:50;13.74;79.90
68842;SHT35;55849;48.482;2.332;2024-01-25T21:39:52;13.71;80.23
68842;SHT35;55849;48.482;2.332;2024-01-25T21:42:54;13.68;80.23
68842;SHT35;55849;48.482;2.332;2024-01-25T21:45:56;13.65;80.23
68842;SHT35;55849;48.482;2.332;2024-01-25T21:48:57;13.64;80.04
68842;SHT35;55849;48.482;2.332;2024-01-25T21:51:59;13.62;80.13
68842;SHT35;55849;48.482;2.332;2024-01-25T21:55:03;13.58;80.24
68842;SHT35;55849;48.482;2.332;2024-01-25T21:58:07;13.54;80.24
68842;SHT35;55849;48.482;2.332;2024-01-25T22:01:08;13.53;80.64
68842;SHT35;55849;48.482;2.332;2024-01-25T22:04:10;13.51;80.45
68842;SHT35;55849;48.482;2.332;2024-01-25T22:07:12;13.48;80.37
68842;SHT35;55849;48.482;2.332;2024-01-25T22:10:16;13.48;80.31
68842;SHT35;55849;48.482;2.332;2024-01-25T22:13:17;13.44;80.11
68842;SHT35;55849;48.482;2.332;2024-01-25T22:16:19;13.39;79.78
68842;SHT35;55849;48.482;2.332;2024-01-25T22:19:21;13.33;79.98
68842;SHT35;55849;48.482;2.332;2024-01-25T22:22:23;13.29;80.21
68842;SHT35;55849;48.482;2.332;2024-01-25T22:25:26;13.26;80.18
68842;SHT35;55849;48.482;2.332;2024-01-25T22:28:28;13.23;80.56
68842;SHT35;55849;48.482;2.332;2024-01-25T22:31:29;13.19;80.05
68842;SHT35;55849;48.482;2.332;2024-01-25T22:34:31;13.15;80.02
68842;SHT35;55849;48.482;2.332;2024-01-25T22:37:33;13.09;79.64
68842;SHT35;55849;48.482;2.332;2024-01-25T22:40:36;13.06;80.47
68842;SHT35;55849;48.482;2.332;2024-01-25T22:43:38;13.03;80.31
68842;SHT35;55849;48.482;2.332;2024-01-25T22:46:39;13.01;80.74
68842;SHT35;55849;48.482;2.332;2024-01-25T22:49:41;12.99;80.55
68842;SHT35;55849;48.482;2.332;2024-01-25T22:52:42;12.99;80.83
68842;SHT35;55849;48.482;2.332;2024-01-25T22:55:46;12.99;80.98
68842;SHT35;55849;48.482;2.332;2024-01-25T22:58:47;12.98;80.91
68842;SHT35;55849;48.482;2.332;2024-01-25T23:01:49;12.99;80.81
68842;SHT35;55849;48.482;2.332;2024-01-25T23:04:51;13.01;81.04
68842;SHT35;55849;48.482;2.332;2024-01-25T23:07:53;12.99;80.83
68842;SHT35;55849;48.482;2.332;2024-01-25T23:10:56;12.99;80.72
68842;SHT35;55849;48.482;2.332;2024-01-25T23:13:57;12.96;81.12
68842;SHT35;55849;48.482;2.332;2024-01-25T23:16:59;12.96;80.79
